• Join FlightAware (Why Join?)
  • Login
  • US Flag 
09:24PM EDT


 

Airport Tracker/Info


-or-


 

Live Flight TrackerFlight Track Log ✈ SWA3355 ✈ 05-Apr-2014 ✈ KPHX - KDEN

Flight Track Log - Related Links

Times and Time Zones

All times are in EDT time to prevent confusion due to time zone crossing. See the SWA3355 flight status page for this flight to view local times or setup timezone preferences in your user account.

Time Position Orientation Groundspeed Altitude Reporting Facility
EDT Latitude Longitude Course Direction KTS MPH feet Rate Location/Type
10:58PM 33.4536 -112.1939 279° West 270 311 7,300  Level Albuquerque Center
10:59PM 33.5264 -112.1806 North 274 315 10,400 2,340 Climbing Albuquerque Center
11:00PM 33.6047 -112.1319 27° Northeast 331 381 12,100 2,220 Climbing Albuquerque Center
11:01PM 34.0411 -111.7422 40° Northeast  Level FlightAware Approximate
11:01PM 33.6789 -112.0647 37° Northeast 334 384 15,000  Level Albuquerque Center
11:02PM 33.7733 -111.9806 37° Northeast 350 403 17,500 2,280 Climbing Albuquerque Center
11:03PM 33.8536 -111.9075 37° Northeast 362 417 19,700 2,040 Climbing Albuquerque Center
11:04PM 33.9439 -111.8258 37° Northeast 373 429 21,700 1,680 Climbing Albuquerque Center
11:05PM 34.0306 -111.7469 37° Northeast 385 443 23,200 1,440 Climbing Albuquerque Center
11:06PM 34.1269 -111.6789 30° Northeast 402 463 24,700 1,320 Climbing Albuquerque Center
11:07PM 34.1939 -111.5989 45° Northeast 405 466 26,000 1,320 Climbing Albuquerque Center
11:08PM 34.2956 -111.4842 43° Northeast 413 475 27,500 1,200 Climbing Albuquerque Center
11:09PM 34.3803 -111.3858 44° Northeast 418 481 28,500 1,080 Climbing Albuquerque Center
11:10PM 34.4678 -111.2842 44° Northeast 430 495 29,800 1,260 Climbing Albuquerque Center
11:11PM 34.5539 -111.1842 44° Northeast 431 496 31,100 1,080 Climbing Albuquerque Center
11:12PM 34.6397 -111.0850 44° Northeast 430 495 32,100 960 Climbing Albuquerque Center
11:13PM 34.7253 -110.9844 44° Northeast 430 495 33,100 720 Climbing Albuquerque Center
11:14PM 34.8117 -110.8822 44° Northeast 430 495 33,600 600 Climbing Albuquerque Center
11:15PM 34.8992 -110.7783 44° Northeast 436 502 34,400 660 Climbing Albuquerque Center
11:16PM 34.9881 -110.6722 44° Northeast 436 502 35,000 240 Climbing Albuquerque Center
11:17PM 35.0844 -110.5569 44° Northeast 435 501 35,000  Level Albuquerque Center
11:18PM 35.1661 -110.4617 44° Northeast 429 494 35,000  Level Albuquerque Center
11:19PM 35.2486 -110.3653 44° Northeast 426 490 35,000  Level Albuquerque Center
11:20PM 35.3447 -110.2475 45° Northeast 434 499 35,000  Level Albuquerque Center
11:21PM 35.4275 -110.1489 44° Northeast 435 501 35,000  Level Albuquerque Center
11:22PM 35.5108 -110.0472 45° Northeast 437 503 35,000  Level Albuquerque Center
11:23PM 35.6083 -109.9317 44° Northeast 437 503 35,000  Level Albuquerque Center
11:24PM 35.6922 -109.8303 44° Northeast 437 503 35,000  Level Albuquerque Center
11:25PM 35.7756 -109.7289 45° Northeast 438 504 35,000  Level Albuquerque Center
11:26PM 35.8733 -109.6111 44° Northeast 438 504 35,000  Level Albuquerque Center
11:27PM 35.9575 -109.5089 44° Northeast 439 505 35,000  Level Albuquerque Center
11:28PM 36.0397 -109.4067 45° Northeast 439 505 35,000  Level Albuquerque Center
11:29PM 36.1378 -109.2869 45° Northeast 439 505 35,000  Level Albuquerque Center
11:30PM 36.2214 -109.1850 45° Northeast 439 505 35,000  Level Albuquerque Center
11:31PM 36.3047 -109.0803 45° Northeast 439 505 35,000  Level Albuquerque Center
11:32PM 36.4019 -108.9597 45° Northeast 439 505 35,000  Level Albuquerque Center
11:34PM 36.5289 -108.8047 44° Northeast 439 505 35,000  Level Denver Center
11:35PM 36.6111 -108.7008 45° Northeast 439 505 35,000  Level Denver Center
11:36PM 36.6936 -108.5967 45° Northeast 439 505 35,000  Level Denver Center
11:37PM 36.7886 -108.4769 45° Northeast 439 505 35,000  Level Denver Center
11:38PM 36.8708 -108.3733 45° Northeast 438 504 35,000  Level Denver Center
11:39PM 36.9522 -108.2689 46° Northeast 438 504 35,000  Level Denver Center
11:40PM 37.0472 -108.1497 45° Northeast 436 502 35,000  Level Denver Center
11:41PM 37.1303 -108.0436 46° Northeast 440 506 35,000  Level Denver Center
11:42PM 37.2119 -107.9378 46° Northeast 441 507 35,000  Level Denver Center
11:43PM 37.3081 -107.8147 46° Northeast 441 507 35,000  Level Denver Center
11:44PM 37.3900 -107.7086 46° Northeast 441 507 35,000  Level Denver Center
11:45PM 37.4722 -107.6017 46° Northeast 441 507 35,000  Level Denver Center
11:46PM 37.5683 -107.4764 46° Northeast 442 509 35,000  Level Denver Center
11:47PM 37.6508 -107.3694 46° Northeast 444 511 35,000  Level Denver Center
11:48PM 37.7331 -107.2617 46° Northeast 444 511 35,000  Level Denver Center
11:49PM 37.8225 -107.1419 47° Northeast 444 511 35,000  Level Denver Center
11:50PM 37.9039 -107.0358 46° Northeast 441 507 35,000  Level Denver Center
11:51PM 37.9961 -106.9122 47° Northeast 435 501 35,000  Level Denver Center
11:52PM 38.0753 -106.8064 46° Northeast 433 498 35,000  Level Denver Center
11:53PM 38.1550 -106.7008 46° Northeast 433 498 35,000  Level Denver Center
11:54PM 38.2494 -106.5764 46° Northeast 434 499 35,000  Level Denver Center
11:55PM 38.3214 -106.4858 45° Northeast 437 503 35,000  Level Denver Center
11:56PM 38.4103 -106.3772 44° Northeast 438 504 35,000  Level Denver Center
11:57PM 38.5150 -106.2467 44° Northeast 439 505 35,000  Level Denver Center
11:58PM 38.5944 -106.1467 45° Northeast 441 507 35,000  Level Denver Center
11:59PM 38.6781 -106.0419 44° Northeast 442 509 35,000 -1,440 Level Denver Center
12:00AM 38.7819 -105.9111 44° Northeast 441 507 32,200 -2,520 Descending Denver Center
12:01AM 38.8683 -105.8017 45° Northeast 439 505 30,000 -2,220 Descending Denver Center
12:02AM 38.9522 -105.6950 45° Northeast 430 495 27,800 -2,340 Descending Denver Center
12:03AM 39.0344 -105.5894 45° Northeast 429 494 25,400 -2,280 Descending Denver Center
12:04AM 39.1100 -105.4931 45° Northeast 407 468 23,300 -2,220 Descending Denver Center
12:05AM 39.1886 -105.3922 45° Northeast 391 450 20,900 -2,160 Descending Denver Center
12:06AM 39.2608 -105.2878 48° Northeast 381 438 19,000 -1,200 Descending Denver Center
12:07AM 39.2853 -105.1636 76° East 357 411 18,600 -1,440 Descending Denver Center
12:08AM 39.3172 -105.0344 72° East 357 411 16,100 -2,340 Descending Denver Center
12:09AM 39.3753 -104.9378 52° Northeast 345 397 14,000 -2,160 Descending Denver Center
12:10AM 39.4297 -104.8425 53° Northeast 331 381 11,800 -1,740 Descending Denver Center
12:11AM 39.4825 -104.7542 52° Northeast 312 359 10,500 -960 Descending Denver Center
12:12AM 39.5436 -104.6997 34° Northeast 272 313 9,900 -420 Descending Denver Center
12:13AM 39.6031 -104.6600 27° Northeast 248 285 9,700 -660 Descending Denver Center
12:14AM 39.6669 -104.6636 358° North 217 250 8,600 -1,080 Descending Denver Center
12:15AM 39.7192 -104.6617 North 197 227 7,600 -1,020 Descending Denver Center
12:16AM 39.7714 -104.6614 360° North 193 222 6,600 -900 Descending Denver Center
12:17AM 39.8114 -104.6614 360° North 146 168 5,800 -600 Descending Denver Center
12:18AM 39.8439 -104.6597 North 134 154 5,400 -420 Descending Denver Center
12:20AM 39.8500 -104.6667 North  Level FlightAware Approximate
12:27AM 39.8617 -104.6732 North  Level Estimated
12:28AM 39.8617 -104.6732 North  Level Estimated